sensor_id;sensor_type;location;lat;lon;timestamp;temperature;humidity
14985;DHT22;7588;62.368;25.902;2023-05-20T00:00:26;4.50;99.90
14985;DHT22;7588;62.368;25.902;2023-05-20T00:02:52;4.40;99.90
14985;DHT22;7588;62.368;25.902;2023-05-20T00:05:17;4.40;99.90
14985;DHT22;7588;62.368;25.902;2023-05-20T00:07:43;4.30;99.90
14985;DHT22;7588;62.368;25.902;2023-05-20T00:10:09;4.40;99.90
14985;DHT22;7588;62.368;25.902;2023-05-20T00:12:37;4.40;99.90
14985;DHT22;7588;62.368;25.902;2023-05-20T00:15:03;4.40;99.90
14985;DHT22;7588;62.368;25.902;2023-05-20T00:17:29;4.40;99.90
14985;DHT22;7588;62.368;25.902;2023-05-20T00:19:55;4.40;99.90
14985;DHT22;7588;62.368;25.902;2023-05-20T00:22:21;4.40;99.90
14985;DHT22;7588;62.368;25.902;2023-05-20T00:24:47;4.30;99.90
14985;DHT22;7588;62.368;25.902;2023-05-20T00:27:13;4.30;99.90
14985;DHT22;7588;62.368;25.902;2023-05-20T00:29:38;4.20;99.90
14985;DHT22;7588;62.368;25.902;2023-05-20T00:32:04;4.20;99.90
14985;DHT22;7588;62.368;25.902;2023-05-20T00:34:30;4.20;99.90
14985;DHT22;7588;62.368;25.902;2023-05-20T00:36:56;4.20;99.90
14985;DHT22;7588;62.368;25.902;2023-05-20T00:39:21;4.20;99.90
14985;DHT22;7588;62.368;25.902;2023-05-20T00:41:47;4.30;99.90
14985;DHT22;7588;62.368;25.902;2023-05-20T00:44:12;4.30;99.90
14985;DHT22;7588;62.368;25.902;2023-05-20T00:46:38;4.20;99.90
14985;DHT22;7588;62.368;25.902;2023-05-20T00:49:04;4.20;99.90
14985;DHT22;7588;62.368;25.902;2023-05-20T00:51:31;4.20;99.90
14985;DHT22;7588;62.368;25.902;2023-05-20T00:53:57;4.30;99.90
14985;DHT22;7588;62.368;25.902;2023-05-20T00:56:23;4.30;99.90
14985;DHT22;7588;62.368;25.902;2023-05-20T00:58:50;4.20;99.90
14985;DHT22;7588;62.368;25.902;2023-05-20T01:01:16;4.20;99.90
14985;DHT22;7588;62.368;25.902;2023-05-20T01:03:41;4.10;99.90
14985;DHT22;7588;62.368;25.902;2023-05-20T01:06:07;3.90;99.90
14985;DHT22;7588;62.368;25.902;2023-05-20T01:08:33;3.90;99.90
14985;DHT22;7588;62.368;25.902;2023-05-20T01:11:08;3.90;99.90
14985;DHT22;7588;62.368;25.902;2023-05-20T01:13:44;3.90;99.90
14985;DHT22;7588;62.368;25.902;2023-05-20T01:16:13;3.90;99.90
14985;DHT22;7588;62.368;25.902;2023-05-20T01:18:42;3.80;99.90
14985;DHT22;7588;62.368;25.902;2023-05-20T01:21:11;3.80;99.90
14985;DHT22;7588;62.368;25.902;2023-05-20T01:23:39;3.80;99.90
14985;DHT22;7588;62.368;25.902;2023-05-20T01:26:05;3.90;99.90
14985;DHT22;7588;62.368;25.902;2023-05-20T01:28:32;3.80;99.90
14985;DHT22;7588;62.368;25.902;2023-05-20T01:31:00;3.80;99.90
14985;DHT22;7588;62.368;25.902;2023-05-20T01:33:27;3.80;99.90
14985;DHT22;7588;62.368;25.902;2023-05-20T01:35:54;3.80;99.90
14985;DHT22;7588;62.368;25.902;2023-05-20T01:38:22;3.80;99.90
14985;DHT22;7588;62.368;25.902;2023-05-20T01:40:48;3.80;99.90
14985;DHT22;7588;62.368;25.902;2023-05-20T01:43:16;3.70;99.90
14985;DHT22;7588;62.368;25.902;2023-05-20T01:45:42;3.70;99.90
14985;DHT22;7588;62.368;25.902;2023-05-20T01:48:12;3.70;99.90
14985;DHT22;7588;62.368;25.902;2023-05-20T01:50:38;3.70;99.90
14985;DHT22;7588;62.368;25.902;2023-05-20T01:53:04;3.70;99.90
14985;DHT22;7588;62.368;25.902;2023-05-20T01:55:30;3.80;99.90
14985;DHT22;7588;62.368;25.902;2023-05-20T01:57:56;3.90;99.90
14985;DHT22;7588;62.368;25.902;2023-05-20T02:00:21;3.90;99.90
14985;DHT22;7588;62.368;25.902;2023-05-20T02:02:47;3.80;99.90
14985;DHT22;7588;62.368;25.902;2023-05-20T02:05:13;3.80;99.90
14985;DHT22;7588;62.368;25.902;2023-05-20T02:07:38;3.80;99.90
14985;DHT22;7588;62.368;25.902;2023-05-20T02:10:05;3.70;99.90
14985;DHT22;7588;62.368;25.902;2023-05-20T02:12:30;3.70;99.90
14985;DHT22;7588;62.368;25.902;2023-05-20T02:14:56;3.70;99.90
14985;DHT22;7588;62.368;25.902;2023-05-20T02:17:22;3.80;99.90
14985;DHT22;7588;62.368;25.902;2023-05-20T02:19:47;3.80;99.90
14985;DHT22;7588;62.368;25.902;2023-05-20T02:22:14;3.80;99.90
14985;DHT22;7588;62.368;25.902;2023-05-20T02:24:40;3.80;99.90
14985;DHT22;7588;62.368;25.902;2023-05-20T02:27:07;3.90;99.90
14985;DHT22;7588;62.368;25.902;2023-05-20T02:29:33;3.90;99.90
14985;DHT22;7588;62.368;25.902;2023-05-20T02:31:59;3.90;99.90
14985;DHT22;7588;62.368;25.902;2023-05-20T02:34:24;4.00;99.90
14985;DHT22;7588;62.368;25.902;2023-05-20T02:36:50;4.00;99.90
14985;DHT22;7588;62.368;25.902;2023-05-20T02:39:17;4.10;99.90
14985;DHT22;7588;62.368;25.902;2023-05-20T02:41:42;4.20;99.90
14985;DHT22;7588;62.368;25.902;2023-05-20T02:44:08;4.20;99.90
14985;DHT22;7588;62.368;25.902;2023-05-20T02:46:34;4.30;99.90
14985;DHT22;7588;62.368;25.902;2023-05-20T02:49:00;4.30;99.90
14985;DHT22;7588;62.368;25.902;2023-05-20T02:51:25;4.40;99.90
14985;DHT22;7588;62.368;25.902;2023-05-20T02:53:51;4.50;99.90
14985;DHT22;7588;62.368;25.902;2023-05-20T02:56:17;4.60;99.90
14985;DHT22;7588;62.368;25.902;2023-05-20T02:58:46;4.70;99.90
14985;DHT22;7588;62.368;25.902;2023-05-20T03:01:12;4.70;99.90
14985;DHT22;7588;62.368;25.902;2023-05-20T03:03:38;4.70;99.90
14985;DHT22;7588;62.368;25.902;2023-05-20T03:06:05;4.80;99.90
14985;DHT22;7588;62.368;25.902;2023-05-20T03:08:32;4.90;99.90
14985;DHT22;7588;62.368;25.902;2023-05-20T03:11:00;5.00;99.90
14985;DHT22;7588;62.368;25.902;2023-05-20T03:13:26;5.00;99.90
14985;DHT22;7588;62.368;25.902;2023-05-20T03:15:52;5.10;99.90
14985;DHT22;7588;62.368;25.902;2023-05-20T03:18:18;5.20;99.90
14985;DHT22;7588;62.368;25.902;2023-05-20T03:20:45;5.30;99.90
14985;DHT22;7588;62.368;25.902;2023-05-20T03:23:11;5.40;99.90
14985;DHT22;7588;62.368;25.902;2023-05-20T03:25:37;5.60;99.90
14985;DHT22;7588;62.368;25.902;2023-05-20T03:28:03;5.70;99.90
14985;DHT22;7588;62.368;25.902;2023-05-20T03:30:31;5.80;99.90
14985;DHT22;7588;62.368;25.902;2023-05-20T03:32:57;5.90;99.90
14985;DHT22;7588;62.368;25.902;2023-05-20T03:35:23;6.00;99.90
14985;DHT22;7588;62.368;25.902;2023-05-20T03:37:49;6.10;99.90
14985;DHT22;7588;62.368;25.902;2023-05-20T03:40:16;6.30;99.90
14985;DHT22;7588;62.368;25.902;2023-05-20T03:42:41;6.40;99.90
14985;DHT22;7588;62.368;25.902;2023-05-20T03:45:08;6.60;99.90
14985;DHT22;7588;62.368;25.902;2023-05-20T03:47:33;6.70;99.90
14985;DHT22;7588;62.368;25.902;2023-05-20T03:49:59;6.90;99.90
14985;DHT22;7588;62.368;25.902;2023-05-20T03:52:25;7.20;99.90
14985;DHT22;7588;62.368;25.902;2023-05-20T03:54:52;7.50;99.90
14985;DHT22;7588;62.368;25.902;2023-05-20T03:57:17;7.90;99.90
14985;DHT22;7588;62.368;25.902;2023-05-20T03:59:44;8.30;99.90
14985;DHT22;7588;62.368;25.902;2023-05-20T04:02:10;8.50;99.90
14985;DHT22;7588;62.368;25.902;2023-05-20T04:04:36;8.60;99.90
14985;DHT22;7588;62.368;25.902;2023-05-20T04:07:02;8.80;99.90
14985;DHT22;7588;62.368;25.902;2023-05-20T04:09:29;9.20;99.90
14985;DHT22;7588;62.368;25.902;2023-05-20T04:11:55;9.60;99.90
14985;DHT22;7588;62.368;25.902;2023-05-20T04:14:21;9.90;99.90
14985;DHT22;7588;62.368;25.902;2023-05-20T04:16:47;10.20;99.90
14985;DHT22;7588;62.368;25.902;2023-05-20T04:19:14;10.30;99.90
14985;DHT22;7588;62.368;25.902;2023-05-20T04:21:42;10.50;99.90
14985;DHT22;7588;62.368;25.902;2023-05-20T04:24:07;10.90;99.90
14985;DHT22;7588;62.368;25.902;2023-05-20T04:26:33;11.50;99.90
14985;DHT22;7588;62.368;25.902;2023-05-20T04:29:01;12.00;99.90
14985;DHT22;7588;62.368;25.902;2023-05-20T04:31:29;12.30;99.90
14985;DHT22;7588;62.368;25.902;2023-05-20T04:33:55;13.00;99.90
14985;DHT22;7588;62.368;25.902;2023-05-20T04:36:21;14.10;99.90
14985;DHT22;7588;62.368;25.902;2023-05-20T04:38:47;15.30;94.50
14985;DHT22;7588;62.368;25.902;2023-05-20T04:41:14;16.10;91.70
14985;DHT22;7588;62.368;25.902;2023-05-20T04:43:40;16.40;90.20
14985;DHT22;7588;62.368;25.902;2023-05-20T04:46:07;16.50;88.70
14985;DHT22;7588;62.368;25.902;2023-05-20T04:48:34;16.60;87.90
14985;DHT22;7588;62.368;25.902;2023-05-20T04:50:59;17.10;84.60
14985;DHT22;7588;62.368;25.902;2023-05-20T04:53:25;17.10;87.30
14985;DHT22;7588;62.368;25.902;2023-05-20T04:55:54;17.50;84.50
14985;DHT22;7588;62.368;25.902;2023-05-20T04:58:21;17.80;82.00
14985;DHT22;7588;62.368;25.902;2023-05-20T05:00:49;17.20;84.40
14985;DHT22;7588;62.368;25.902;2023-05-20T05:03:16;17.10;83.30
14985;DHT22;7588;62.368;25.902;2023-05-20T05:05:42;17.10;84.40
14985;DHT22;7588;62.368;25.902;2023-05-20T05:08:08;18.10;81.00
14985;DHT22;7588;62.368;25.902;2023-05-20T05:10:36;18.60;76.70
14985;DHT22;7588;62.368;25.902;2023-05-20T05:13:02;18.90;74.60
14985;DHT22;7588;62.368;25.902;2023-05-20T05:15:28;18.70;75.20
14985;DHT22;7588;62.368;25.902;2023-05-20T05:17:53;18.90;74.90
14985;DHT22;7588;62.368;25.902;2023-05-20T05:20:19;19.00;74.00
14985;DHT22;7588;62.368;25.902;2023-05-20T05:22:45;19.20;73.10
14985;DHT22;7588;62.368;25.902;2023-05-20T05:25:11;19.30;69.20
14985;DHT22;7588;62.368;25.902;2023-05-20T05:27:37;19.30;70.70
14985;DHT22;7588;62.368;25.902;2023-05-20T05:30:04;19.70;72.50
14985;DHT22;7588;62.368;25.902;2023-05-20T05:32:30;19.70;69.40
14985;DHT22;7588;62.368;25.902;2023-05-20T05:34:56;20.10;66.60
14985;DHT22;7588;62.368;25.902;2023-05-20T05:37:22;19.70;65.00
14985;DHT22;7588;62.368;25.902;2023-05-20T05:39:47;20.30;67.10
14985;DHT22;7588;62.368;25.902;2023-05-20T05:42:13;20.40;62.00
14985;DHT22;7588;62.368;25.902;2023-05-20T05:44:39;20.70;60.80
14985;DHT22;7588;62.368;25.902;2023-05-20T05:47:05;20.60;64.00
14985;DHT22;7588;62.368;25.902;2023-05-20T05:49:31;20.40;60.30
14985;DHT22;7588;62.368;25.902;2023-05-20T05:51:57;20.50;61.90
14985;DHT22;7588;62.368;25.902;2023-05-20T05:54:23;20.60;59.40
14985;DHT22;7588;62.368;25.902;2023-05-20T05:56:50;20.70;61.10
14985;DHT22;7588;62.368;25.902;2023-05-20T05:59:16;20.80;61.50
14985;DHT22;7588;62.368;25.902;2023-05-20T06:01:42;20.90;64.20
14985;DHT22;7588;62.368;25.902;2023-05-20T06:04:07;21.30;61.70
14985;DHT22;7588;62.368;25.902;2023-05-20T06:06:33;21.00;63.60
14985;DHT22;7588;62.368;25.902;2023-05-20T06:08:59;21.20;60.10
14985;DHT22;7588;62.368;25.902;2023-05-20T06:11:25;20.90;62.50
14985;DHT22;7588;62.368;25.902;2023-05-20T06:13:51;21.30;61.80
14985;DHT22;7588;62.368;25.902;2023-05-20T06:16:17;21.20;60.00
14985;DHT22;7588;62.368;25.902;2023-05-20T06:18:44;21.00;59.30
14985;DHT22;7588;62.368;25.902;2023-05-20T06:21:10;21.00;62.20
14985;DHT22;7588;62.368;25.902;2023-05-20T06:23:36;21.30;58.80
14985;DHT22;7588;62.368;25.902;2023-05-20T06:26:02;21.30;60.80
14985;DHT22;7588;62.368;25.902;2023-05-20T06:28:28;21.50;62.10
14985;DHT22;7588;62.368;25.902;2023-05-20T06:30:55;21.30;58.90
14985;DHT22;7588;62.368;25.902;2023-05-20T06:33:24;21.20;58.50
14985;DHT22;7588;62.368;25.902;2023-05-20T06:35:54;21.10;60.90
14985;DHT22;7588;62.368;25.902;2023-05-20T06:38:20;21.20;60.90
14985;DHT22;7588;62.368;25.902;2023-05-20T06:40:46;21.60;56.80
14985;DHT22;7588;62.368;25.902;2023-05-20T06:43:13;21.80;55.50
14985;DHT22;7588;62.368;25.902;2023-05-20T06:45:39;22.10;55.90
14985;DHT22;7588;62.368;25.902;2023-05-20T06:48:05;22.40;56.10
14985;DHT22;7588;62.368;25.902;2023-05-20T06:50:30;22.00;54.70
14985;DHT22;7588;62.368;25.902;2023-05-20T06:52:56;21.60;57.50
14985;DHT22;7588;62.368;25.902;2023-05-20T06:55:22;21.90;54.80
14985;DHT22;7588;62.368;25.902;2023-05-20T06:57:47;22.00;55.80
14985;DHT22;7588;62.368;25.902;2023-05-20T07:00:13;22.30;56.40
14985;DHT22;7588;62.368;25.902;2023-05-20T07:02:39;22.40;55.60
14985;DHT22;7588;62.368;25.902;2023-05-20T07:05:05;22.40;55.60
14985;DHT22;7588;62.368;25.902;2023-05-20T07:07:31;22.00;56.80
14985;DHT22;7588;62.368;25.902;2023-05-20T07:09:57;22.20;57.90
14985;DHT22;7588;62.368;25.902;2023-05-20T07:12:23;22.40;54.50
14985;DHT22;7588;62.368;25.902;2023-05-20T07:14:48;22.20;54.10
14985;DHT22;7588;62.368;25.902;2023-05-20T07:17:14;21.70;53.80
14985;DHT22;7588;62.368;25.902;2023-05-20T07:19:40;21.00;56.60
14985;DHT22;7588;62.368;25.902;2023-05-20T07:22:06;21.00;54.80
14985;DHT22;7588;62.368;25.902;2023-05-20T07:24:32;21.20;55.40
14985;DHT22;7588;62.368;25.902;2023-05-20T07:26:57;21.20;57.00
14985;DHT22;7588;62.368;25.902;2023-05-20T07:29:23;21.30;57.00
14985;DHT22;7588;62.368;25.902;2023-05-20T07:31:49;21.60;55.20
14985;DHT22;7588;62.368;25.902;2023-05-20T07:34:15;21.70;53.30
14985;DHT22;7588;62.368;25.902;2023-05-20T07:36:40;21.70;57.40
14985;DHT22;7588;62.368;25.902;2023-05-20T07:39:06;21.80;53.70
14985;DHT22;7588;62.368;25.902;2023-05-20T07:41:33;21.50;57.10
14985;DHT22;7588;62.368;25.902;2023-05-20T07:44:00;21.20;54.50
14985;DHT22;7588;62.368;25.902;2023-05-20T07:46:26;21.30;56.50
14985;DHT22;7588;62.368;25.902;2023-05-20T07:48:52;20.90;57.20
14985;DHT22;7588;62.368;25.902;2023-05-20T07:51:17;20.40;55.60
14985;DHT22;7588;62.368;25.902;2023-05-20T07:53:43;20.50;55.10
14985;DHT22;7588;62.368;25.902;2023-05-20T07:56:09;20.50;58.50
14985;DHT22;7588;62.368;25.902;2023-05-20T07:58:34;20.60;56.30
14985;DHT22;7588;62.368;25.902;2023-05-20T08:01:00;20.60;55.50
14985;DHT22;7588;62.368;25.902;2023-05-20T08:03:26;20.70;58.00
14985;DHT22;7588;62.368;25.902;2023-05-20T08:05:52;20.70;53.30
14985;DHT22;7588;62.368;25.902;2023-05-20T08:08:17;20.70;55.60
14985;DHT22;7588;62.368;25.902;2023-05-20T08:10:43;20.80;58.90
14985;DHT22;7588;62.368;25.902;2023-05-20T08:13:09;20.90;54.00
14985;DHT22;7588;62.368;25.902;2023-05-20T08:15:35;21.20;52.70
14985;DHT22;7588;62.368;25.902;2023-05-20T08:18:01;20.90;58.20
14985;DHT22;7588;62.368;25.902;2023-05-20T08:20:28;21.00;54.50
14985;DHT22;7588;62.368;25.902;2023-05-20T08:22:54;21.10;53.20
14985;DHT22;7588;62.368;25.902;2023-05-20T08:25:19;21.50;54.70
14985;DHT22;7588;62.368;25.902;2023-05-20T08:27:45;21.30;52.20
14985;DHT22;7588;62.368;25.902;2023-05-20T08:30:11;21.50;51.60
14985;DHT22;7588;62.368;25.902;2023-05-20T08:32:37;21.70;51.00
14985;DHT22;7588;62.368;25.902;2023-05-20T08:35:03;21.60;52.90
14985;DHT22;7588;62.368;25.902;2023-05-20T08:37:29;21.10;52.60
14985;DHT22;7588;62.368;25.902;2023-05-20T08:39:55;21.30;54.30
14985;DHT22;7588;62.368;25.902;2023-05-20T08:42:24;21.50;49.50
14985;DHT22;7588;62.368;25.902;2023-05-20T08:44:51;21.50;49.70
14985;DHT22;7588;62.368;25.902;2023-05-20T08:47:21;21.30;54.00
14985;DHT22;7588;62.368;25.902;2023-05-20T08:49:50;21.60;52.20
14985;DHT22;7588;62.368;25.902;2023-05-20T08:52:20;21.80;49.10
14985;DHT22;7588;62.368;25.902;2023-05-20T08:54:48;22.00;52.30
14985;DHT22;7588;62.368;25.902;2023-05-20T08:57:14;21.70;51.50
14985;DHT22;7588;62.368;25.902;2023-05-20T08:59:44;21.70;49.20
14985;DHT22;7588;62.368;25.902;2023-05-20T09:02:11;21.30;50.80
14985;DHT22;7588;62.368;25.902;2023-05-20T09:04:37;21.20;53.70
14985;DHT22;7588;62.368;25.902;2023-05-20T09:07:04;21.50;53.20
14985;DHT22;7588;62.368;25.902;2023-05-20T09:09:31;21.70;48.50
14985;DHT22;7588;62.368;25.902;2023-05-20T09:11:59;22.00;50.90
14985;DHT22;7588;62.368;25.902;2023-05-20T09:14:24;22.20;51.00
14985;DHT22;7588;62.368;25.902;2023-05-20T09:16:51;22.20;47.60
14985;DHT22;7588;62.368;25.902;2023-05-20T09:19:20;22.30;50.80
14985;DHT22;7588;62.368;25.902;2023-05-20T09:21:46;22.10;48.20
14985;DHT22;7588;62.368;25.902;2023-05-20T09:24:12;22.10;49.10
14985;DHT22;7588;62.368;25.902;2023-05-20T09:26:38;21.90;50.20
14985;DHT22;7588;62.368;25.902;2023-05-20T09:29:03;22.00;50.30
14985;DHT22;7588;62.368;25.902;2023-05-20T09:31:30;22.20;50.70
14985;DHT22;7588;62.368;25.902;2023-05-20T09:33:59;22.60;49.60
14985;DHT22;7588;62.368;25.902;2023-05-20T09:36:29;22.90;48.90
14985;DHT22;7588;62.368;25.902;2023-05-20T09:39:00;23.20;48.00
14985;DHT22;7588;62.368;25.902;2023-05-20T09:41:33;23.30;47.60
14985;DHT22;7588;62.368;25.902;2023-05-20T09:44:00;23.30;48.40
14985;DHT22;7588;62.368;25.902;2023-05-20T09:46:26;23.00;48.00
14985;DHT22;7588;62.368;25.902;2023-05-20T09:48:52;23.10;49.80
14985;DHT22;7588;62.368;25.902;2023-05-20T09:51:19;23.10;49.80
14985;DHT22;7588;62.368;25.902;2023-05-20T09:53:47;23.00;49.10
14985;DHT22;7588;62.368;25.902;2023-05-20T09:56:13;23.50;49.40
14985;DHT22;7588;62.368;25.902;2023-05-20T09:58:39;23.40;49.10
14985;DHT22;7588;62.368;25.902;2023-05-20T10:01:06;24.10;48.30
14985;DHT22;7588;62.368;25.902;2023-05-20T10:03:32;24.10;47.90
14985;DHT22;7588;62.368;25.902;2023-05-20T10:06:30;24.60;48.00
14985;DHT22;7588;62.368;25.902;2023-05-20T10:14:37;25.10;46.50
14985;DHT22;7588;62.368;25.902;2023-05-20T10:17:20;24.80;47.10
14985;DHT22;7588;62.368;25.902;2023-05-20T10:19:48;25.10;46.80
14985;DHT22;7588;62.368;25.902;2023-05-20T10:22:24;25.70;47.20
14985;DHT22;7588;62.368;25.902;2023-05-20T10:24:57;26.30;46.00
14985;DHT22;7588;62.368;25.902;2023-05-20T10:27:23;26.50;48.60
14985;DHT22;7588;62.368;25.902;2023-05-20T10:29:54;26.80;47.10
14985;DHT22;7588;62.368;25.902;2023-05-20T10:32:30;27.00;45.40
14985;DHT22;7588;62.368;25.902;2023-05-20T10:35:04;26.70;46.20
14985;DHT22;7588;62.368;25.902;2023-05-20T10:37:41;26.10;47.30
14985;DHT22;7588;62.368;25.902;2023-05-20T10:42:33;25.70;47.10
14985;DHT22;7588;62.368;25.902;2023-05-20T10:44:58;25.40;44.90
14985;DHT22;7588;62.368;25.902;2023-05-20T10:47:24;25.00;48.00
14985;DHT22;7588;62.368;25.902;2023-05-20T10:49:51;24.80;47.50
14985;DHT22;7588;62.368;25.902;2023-05-20T10:52:17;24.90;47.20
14985;DHT22;7588;62.368;25.902;2023-05-20T10:54:57;24.80;46.70
14985;DHT22;7588;62.368;25.902;2023-05-20T10:57:27;25.20;51.20
14985;DHT22;7588;62.368;25.902;2023-05-20T10:59:53;25.80;46.80
14985;DHT22;7588;62.368;25.902;2023-05-20T11:02:20;25.70;46.20
14985;DHT22;7588;62.368;25.902;2023-05-20T11:04:52;26.40;45.80
14985;DHT22;7588;62.368;25.902;2023-05-20T11:07:28;27.00;43.40
14985;DHT22;7588;62.368;25.902;2023-05-20T11:09:55;26.20;44.90
14985;DHT22;7588;62.368;25.902;2023-05-20T11:12:23;26.40;45.60
14985;DHT22;7588;62.368;25.902;2023-05-20T11:14:49;26.20;46.20
14985;DHT22;7588;62.368;25.902;2023-05-20T11:17:16;26.70;44.70
14985;DHT22;7588;62.368;25.902;2023-05-20T11:19:42;26.80;44.90
14985;DHT22;7588;62.368;25.902;2023-05-20T11:22:08;26.50;42.50
14985;DHT22;7588;62.368;25.902;2023-05-20T11:24:34;25.50;45.30
14985;DHT22;7588;62.368;25.902;2023-05-20T11:27:00;25.40;44.20
14985;DHT22;7588;62.368;25.902;2023-05-20T11:29:27;25.30;49.40
14985;DHT22;7588;62.368;25.902;2023-05-20T11:31:53;25.30;48.30
14985;DHT22;7588;62.368;25.902;2023-05-20T11:34:22;25.10;46.80
14985;DHT22;7588;62.368;25.902;2023-05-20T11:36:55;25.40;43.80
14985;DHT22;7588;62.368;25.902;2023-05-20T11:39:21;25.70;43.10
14985;DHT22;7588;62.368;25.902;2023-05-20T11:41:47;25.60;44.60
14985;DHT22;7588;62.368;25.902;2023-05-20T11:44:13;25.50;46.10
14985;DHT22;7588;62.368;25.902;2023-05-20T11:46:46;25.90;44.70
14985;DHT22;7588;62.368;25.902;2023-05-20T11:49:13;26.60;42.70
14985;DHT22;7588;62.368;25.902;2023-05-20T11:51:39;26.70;44.80
14985;DHT22;7588;62.368;25.902;2023-05-20T11:54:06;26.60;44.40
14985;DHT22;7588;62.368;25.902;2023-05-20T11:56:38;26.70;47.80
14985;DHT22;7588;62.368;25.902;2023-05-20T11:59:07;26.80;44.60
14985;DHT22;7588;62.368;25.902;2023-05-20T12:01:35;26.80;44.20
14985;DHT22;7588;62.368;25.902;2023-05-20T12:04:10;26.10;45.20
14985;DHT22;7588;62.368;25.902;2023-05-20T12:06:37;26.30;43.20
14985;DHT22;7588;62.368;25.902;2023-05-20T12:09:05;26.20;45.40
14985;DHT22;7588;62.368;25.902;2023-05-20T12:11:38;25.60;43.40
14985;DHT22;7588;62.368;25.902;2023-05-20T12:14:06;25.60;42.40
14985;DHT22;7588;62.368;25.902;2023-05-20T12:16:33;26.10;43.30
14985;DHT22;7588;62.368;25.902;2023-05-20T12:18:59;26.10;43.90
14985;DHT22;7588;62.368;25.902;2023-05-20T12:21:25;25.60;43.20
14985;DHT22;7588;62.368;25.902;2023-05-20T12:23:51;25.30;45.00
14985;DHT22;7588;62.368;25.902;2023-05-20T12:26:25;25.40;44.80
14985;DHT22;7588;62.368;25.902;2023-05-20T12:28:51;25.50;47.50
14985;DHT22;7588;62.368;25.902;2023-05-20T12:31:17;25.80;44.30
14985;DHT22;7588;62.368;25.902;2023-05-20T12:33:43;26.40;44.50
14985;DHT22;7588;62.368;25.902;2023-05-20T12:36:09;27.30;43.10
14985;DHT22;7588;62.368;25.902;2023-05-20T12:38:34;28.10;39.00
14985;DHT22;7588;62.368;25.902;2023-05-20T12:41:00;27.90;40.70
14985;DHT22;7588;62.368;25.902;2023-05-20T12:43:26;27.80;39.60
14985;DHT22;7588;62.368;25.902;2023-05-20T12:45:52;27.80;43.20
14985;DHT22;7588;62.368;25.902;2023-05-20T12:48:18;27.60;41.10
14985;DHT22;7588;62.368;25.902;2023-05-20T12:50:44;27.20;41.00
14985;DHT22;7588;62.368;25.902;2023-05-20T12:53:10;26.70;42.70
14985;DHT22;7588;62.368;25.902;2023-05-20T12:55:35;25.90;43.10
14985;DHT22;7588;62.368;25.902;2023-05-20T12:58:01;25.40;42.60
14985;DHT22;7588;62.368;25.902;2023-05-20T13:00:27;25.20;43.00
14985;DHT22;7588;62.368;25.902;2023-05-20T13:02:53;25.20;45.20
14985;DHT22;7588;62.368;25.902;2023-05-20T13:05:19;25.00;45.80
14985;DHT22;7588;62.368;25.902;2023-05-20T13:07:45;25.00;43.90
14985;DHT22;7588;62.368;25.902;2023-05-20T13:10:11;25.10;47.20
14985;DHT22;7588;62.368;25.902;2023-05-20T13:12:37;25.40;42.40
14985;DHT22;7588;62.368;25.902;2023-05-20T13:15:03;25.50;40.60
14985;DHT22;7588;62.368;25.902;2023-05-20T13:17:29;25.40;41.10
14985;DHT22;7588;62.368;25.902;2023-05-20T13:19:55;25.60;41.60
14985;DHT22;7588;62.368;25.902;2023-05-20T13:22:21;25.90;41.90
14985;DHT22;7588;62.368;25.902;2023-05-20T13:24:47;26.00;42.00
14985;DHT22;7588;62.368;25.902;2023-05-20T13:27:12;26.00;39.90
14985;DHT22;7588;62.368;25.902;2023-05-20T13:29:38;25.70;42.00
14985;DHT22;7588;62.368;25.902;2023-05-20T13:32:04;25.30;41.10
14985;DHT22;7588;62.368;25.902;2023-05-20T13:34:30;24.80;41.60
14985;DHT22;7588;62.368;25.902;2023-05-20T13:36:56;24.60;42.00
14985;DHT22;7588;62.368;25.902;2023-05-20T13:39:21;24.40;44.70
14985;DHT22;7588;62.368;25.902;2023-05-20T13:41:47;24.20;41.40
14985;DHT22;7588;62.368;25.902;2023-05-20T13:44:13;23.90;42.20
14985;DHT22;7588;62.368;25.902;2023-05-20T13:46:39;23.40;44.30
14985;DHT22;7588;62.368;25.902;2023-05-20T13:49:04;23.20;42.30
14985;DHT22;7588;62.368;25.902;2023-05-20T13:51:30;23.00;42.60
14985;DHT22;7588;62.368;25.902;2023-05-20T13:53:56;22.90;42.30
14985;DHT22;7588;62.368;25.902;2023-05-20T13:56:22;22.70;45.00
14985;DHT22;7588;62.368;25.902;2023-05-20T13:58:48;22.50;43.40
14985;DHT22;7588;62.368;25.902;2023-05-20T14:01:13;22.30;46.20
14985;DHT22;7588;62.368;25.902;2023-05-20T14:03:40;22.10;48.10
14985;DHT22;7588;62.368;25.902;2023-05-20T14:06:06;22.00;45.60
14985;DHT22;7588;62.368;25.902;2023-05-20T14:08:31;21.90;45.20
14985;DHT22;7588;62.368;25.902;2023-05-20T14:10:57;21.90;45.80
14985;DHT22;7588;62.368;25.902;2023-05-20T14:13:24;21.90;46.10
14985;DHT22;7588;62.368;25.902;2023-05-20T14:15:50;21.90;45.40
14985;DHT22;7588;62.368;25.902;2023-05-20T14:18:17;21.80;45.50
14985;DHT22;7588;62.368;25.902;2023-05-20T14:20:43;21.80;45.10
14985;DHT22;7588;62.368;25.902;2023-05-20T14:23:09;21.90;47.10
14985;DHT22;7588;62.368;25.902;2023-05-20T14:25:35;21.80;43.50
14985;DHT22;7588;62.368;25.902;2023-05-20T14:28:01;21.80;45.60
14985;DHT22;7588;62.368;25.902;2023-05-20T14:30:27;22.00;44.70
14985;DHT22;7588;62.368;25.902;2023-05-20T14:32:53;21.90;45.50
14985;DHT22;7588;62.368;25.902;2023-05-20T14:35:19;21.80;46.00
14985;DHT22;7588;62.368;25.902;2023-05-20T14:37:45;21.80;47.90
14985;DHT22;7588;62.368;25.902;2023-05-20T14:40:11;21.50;47.30
14985;DHT22;7588;62.368;25.902;2023-05-20T14:42:37;21.60;47.00
14985;DHT22;7588;62.368;25.902;2023-05-20T14:45:03;21.50;47.50
14985;DHT22;7588;62.368;25.902;2023-05-20T14:47:29;21.70;48.20
14985;DHT22;7588;62.368;25.902;2023-05-20T14:49:55;21.80;48.70
14985;DHT22;7588;62.368;25.902;2023-05-20T14:52:21;21.90;48.10
14985;DHT22;7588;62.368;25.902;2023-05-20T14:54:47;22.10;47.90
14985;DHT22;7588;62.368;25.902;2023-05-20T14:57:12;22.00;47.20
14985;DHT22;7588;62.368;25.902;2023-05-20T14:59:40;22.00;51.10
14985;DHT22;7588;62.368;25.902;2023-05-20T15:02:06;22.10;47.90
14985;DHT22;7588;62.368;25.902;2023-05-20T15:04:32;22.00;49.30
14985;DHT22;7588;62.368;25.902;2023-05-20T15:06:57;21.90;51.50
14985;DHT22;7588;62.368;25.902;2023-05-20T15:09:23;21.80;48.60
14985;DHT22;7588;62.368;25.902;2023-05-20T15:11:49;21.60;47.80
14985;DHT22;7588;62.368;25.902;2023-05-20T15:14:15;21.50;47.70
14985;DHT22;7588;62.368;25.902;2023-05-20T15:16:41;21.50;48.00
14985;DHT22;7588;62.368;25.902;2023-05-20T15:19:09;21.60;49.60
14985;DHT22;7588;62.368;25.902;2023-05-20T15:21:35;21.70;53.00
14985;DHT22;7588;62.368;25.902;2023-05-20T15:24:01;21.70;48.80
14985;DHT22;7588;62.368;25.902;2023-05-20T15:26:28;21.80;51.00
14985;DHT22;7588;62.368;25.902;2023-05-20T15:28:54;21.80;51.30
14985;DHT22;7588;62.368;25.902;2023-05-20T15:31:21;21.70;49.90
14985;DHT22;7588;62.368;25.902;2023-05-20T15:33:46;21.70;51.50
14985;DHT22;7588;62.368;25.902;2023-05-20T15:36:12;21.70;51.10
14985;DHT22;7588;62.368;25.902;2023-05-20T15:38:38;21.60;51.50